sensor_id;sensor_type;location;lat;lon;timestamp;temperature;humidity
23719;DHT22;43322;52.230;5.702;2023-08-07T00:00:24;13.90;99.90
23719;DHT22;43322;52.230;5.702;2023-08-07T00:02:50;13.90;99.90
23719;DHT22;43322;52.230;5.702;2023-08-07T00:05:17;13.90;99.90
23719;DHT22;43322;52.230;5.702;2023-08-07T00:07:44;14.00;99.90
23719;DHT22;43322;52.230;5.702;2023-08-07T00:10:12;13.90;99.90
23719;DHT22;43322;52.230;5.702;2023-08-07T00:12:39;14.30;99.90
23719;DHT22;43322;52.230;5.702;2023-08-07T00:15:07;13.90;99.90
23719;DHT22;43322;52.230;5.702;2023-08-07T00:17:34;13.90;99.90
23719;DHT22;43322;52.230;5.702;2023-08-07T00:20:00;13.80;99.90
23719;DHT22;43322;52.230;5.702;2023-08-07T00:22:27;13.90;99.90
23719;DHT22;43322;52.230;5.702;2023-08-07T00:24:54;13.90;99.90
23719;DHT22;43322;52.230;5.702;2023-08-07T00:27:22;13.90;99.90
23719;DHT22;43322;52.230;5.702;2023-08-07T00:29:48;13.90;99.90
23719;DHT22;43322;52.230;5.702;2023-08-07T00:32:15;13.90;99.90
23719;DHT22;43322;52.230;5.702;2023-08-07T00:34:42;13.90;99.90
23719;DHT22;43322;52.230;5.702;2023-08-07T00:37:08;13.80;99.90
23719;DHT22;43322;52.230;5.702;2023-08-07T00:39:35;13.80;99.90
23719;DHT22;43322;52.230;5.702;2023-08-07T00:42:02;13.80;99.90
23719;DHT22;43322;52.230;5.702;2023-08-07T00:44:30;13.80;99.90
23719;DHT22;43322;52.230;5.702;2023-08-07T00:46:57;13.80;99.90
23719;DHT22;43322;52.230;5.702;2023-08-07T00:49:25;13.80;99.90
23719;DHT22;43322;52.230;5.702;2023-08-07T00:51:52;13.80;99.90
23719;DHT22;43322;52.230;5.702;2023-08-07T00:54:19;13.80;99.90
23719;DHT22;43322;52.230;5.702;2023-08-07T00:56:47;13.80;99.90
23719;DHT22;43322;52.230;5.702;2023-08-07T00:59:14;13.80;99.90
23719;DHT22;43322;52.230;5.702;2023-08-07T01:01:42;13.70;99.90
23719;DHT22;43322;52.230;5.702;2023-08-07T01:04:09;13.80;99.90
23719;DHT22;43322;52.230;5.702;2023-08-07T01:06:36;13.80;99.90
23719;DHT22;43322;52.230;5.702;2023-08-07T01:09:03;14.20;99.90
23719;DHT22;43322;52.230;5.702;2023-08-07T01:11:34;13.80;99.90
23719;DHT22;43322;52.230;5.702;2023-08-07T01:14:08;13.70;99.90
23719;DHT22;43322;52.230;5.702;2023-08-07T01:16:45;13.70;99.90
23719;DHT22;43322;52.230;5.702;2023-08-07T01:19:22;13.80;99.90
23719;DHT22;43322;52.230;5.702;2023-08-07T01:22:04;13.80;99.90
23719;DHT22;43322;52.230;5.702;2023-08-07T01:24:31;13.80;99.90
23719;DHT22;43322;52.230;5.702;2023-08-07T01:27:00;13.80;99.90
23719;DHT22;43322;52.230;5.702;2023-08-07T01:29:33;13.80;99.90
23719;DHT22;43322;52.230;5.702;2023-08-07T01:32:06;13.80;99.90
23719;DHT22;43322;52.230;5.702;2023-08-07T01:34:34;13.80;99.90
23719;DHT22;43322;52.230;5.702;2023-08-07T01:37:03;13.80;99.90
23719;DHT22;43322;52.230;5.702;2023-08-07T01:39:31;13.80;99.90
23719;DHT22;43322;52.230;5.702;2023-08-07T01:41:58;13.80;99.90
23719;DHT22;43322;52.230;5.702;2023-08-07T01:44:25;13.80;99.90
23719;DHT22;43322;52.230;5.702;2023-08-07T01:46:52;13.70;99.90
23719;DHT22;43322;52.230;5.702;2023-08-07T01:49:19;13.80;99.90
23719;DHT22;43322;52.230;5.702;2023-08-07T01:51:45;13.70;99.90
23719;DHT22;43322;52.230;5.702;2023-08-07T01:54:13;13.70;99.90
23719;DHT22;43322;52.230;5.702;2023-08-07T01:56:40;13.70;99.90
23719;DHT22;43322;52.230;5.702;2023-08-07T01:59:07;13.70;99.90
23719;DHT22;43322;52.230;5.702;2023-08-07T02:01:33;13.70;99.90
23719;DHT22;43322;52.230;5.702;2023-08-07T02:04:00;13.80;99.90
23719;DHT22;43322;52.230;5.702;2023-08-07T02:06:27;13.70;99.90
23719;DHT22;43322;52.230;5.702;2023-08-07T02:08:53;13.80;99.90
23719;DHT22;43322;52.230;5.702;2023-08-07T02:11:21;13.80;99.90
23719;DHT22;43322;52.230;5.702;2023-08-07T02:13:48;13.70;99.90
23719;DHT22;43322;52.230;5.702;2023-08-07T02:16:14;13.70;99.90
23719;DHT22;43322;52.230;5.702;2023-08-07T02:18:41;13.70;99.90
23719;DHT22;43322;52.230;5.702;2023-08-07T02:21:08;13.70;99.90
23719;DHT22;43322;52.230;5.702;2023-08-07T02:23:34;13.70;99.90
23719;DHT22;43322;52.230;5.702;2023-08-07T02:26:01;13.70;99.90
23719;DHT22;43322;52.230;5.702;2023-08-07T02:28:29;13.70;99.90
23719;DHT22;43322;52.230;5.702;2023-08-07T02:30:56;13.70;99.90
23719;DHT22;43322;52.230;5.702;2023-08-07T02:33:22;13.70;99.90
23719;DHT22;43322;52.230;5.702;2023-08-07T02:35:49;13.70;99.90
23719;DHT22;43322;52.230;5.702;2023-08-07T02:38:16;13.70;99.90
23719;DHT22;43322;52.230;5.702;2023-08-07T02:40:43;13.70;99.90
23719;DHT22;43322;52.230;5.702;2023-08-07T02:43:09;13.70;99.90
23719;DHT22;43322;52.230;5.702;2023-08-07T02:45:37;13.70;99.90
23719;DHT22;43322;52.230;5.702;2023-08-07T02:48:04;13.70;99.90
23719;DHT22;43322;52.230;5.702;2023-08-07T02:50:31;13.80;99.90
23719;DHT22;43322;52.230;5.702;2023-08-07T02:52:58;13.70;99.90
23719;DHT22;43322;52.230;5.702;2023-08-07T02:55:25;13.70;99.90
23719;DHT22;43322;52.230;5.702;2023-08-07T02:57:52;13.70;99.90
23719;DHT22;43322;52.230;5.702;2023-08-07T03:00:18;13.70;99.90
23719;DHT22;43322;52.230;5.702;2023-08-07T03:02:47;13.70;99.90
23719;DHT22;43322;52.230;5.702;2023-08-07T03:05:13;13.60;99.90
23719;DHT22;43322;52.230;5.702;2023-08-07T03:07:40;13.70;99.90
23719;DHT22;43322;52.230;5.702;2023-08-07T03:10:07;13.70;99.90
23719;DHT22;43322;52.230;5.702;2023-08-07T03:12:34;13.60;99.90
23719;DHT22;43322;52.230;5.702;2023-08-07T03:15:00;13.50;99.90
23719;DHT22;43322;52.230;5.702;2023-08-07T03:17:27;13.60;99.90
23719;DHT22;43322;52.230;5.702;2023-08-07T03:19:55;13.70;99.90
23719;DHT22;43322;52.230;5.702;2023-08-07T03:22:22;13.70;99.90
23719;DHT22;43322;52.230;5.702;2023-08-07T03:24:48;13.60;99.90
23719;DHT22;43322;52.230;5.702;2023-08-07T03:27:15;13.60;99.90
23719;DHT22;43322;52.230;5.702;2023-08-07T03:29:42;13.60;99.90
23719;DHT22;43322;52.230;5.702;2023-08-07T03:32:09;13.60;99.90
23719;DHT22;43322;52.230;5.702;2023-08-07T03:34:35;13.60;99.90
23719;DHT22;43322;52.230;5.702;2023-08-07T03:37:04;13.50;99.90
23719;DHT22;43322;52.230;5.702;2023-08-07T03:39:30;13.60;99.90
23719;DHT22;43322;52.230;5.702;2023-08-07T03:41:57;13.60;99.90
23719;DHT22;43322;52.230;5.702;2023-08-07T03:44:23;13.60;99.90
23719;DHT22;43322;52.230;5.702;2023-08-07T03:46:50;13.60;99.90
23719;DHT22;43322;52.230;5.702;2023-08-07T03:49:17;13.60;99.90
23719;DHT22;43322;52.230;5.702;2023-08-07T03:51:44;13.60;99.90
23719;DHT22;43322;52.230;5.702;2023-08-07T03:54:12;13.60;99.90
23719;DHT22;43322;52.230;5.702;2023-08-07T03:56:38;13.60;99.90
23719;DHT22;43322;52.230;5.702;2023-08-07T03:59:06;13.60;99.90
23719;DHT22;43322;52.230;5.702;2023-08-07T04:01:32;13.40;99.90
23719;DHT22;43322;52.230;5.702;2023-08-07T04:03:59;13.60;99.90
23719;DHT22;43322;52.230;5.702;2023-08-07T04:06:25;13.70;99.90
23719;DHT22;43322;52.230;5.702;2023-08-07T04:08:54;13.70;99.90
23719;DHT22;43322;52.230;5.702;2023-08-07T04:11:22;13.70;99.90
23719;DHT22;43322;52.230;5.702;2023-08-07T04:13:48;13.70;99.90
23719;DHT22;43322;52.230;5.702;2023-08-07T04:16:16;13.70;99.90
23719;DHT22;43322;52.230;5.702;2023-08-07T04:18:42;13.80;99.90
23719;DHT22;43322;52.230;5.702;2023-08-07T04:21:09;13.80;99.90
23719;DHT22;43322;52.230;5.702;2023-08-07T04:23:36;13.80;99.90
23719;DHT22;43322;52.230;5.702;2023-08-07T04:26:03;13.80;99.90
23719;DHT22;43322;52.230;5.702;2023-08-07T04:28:31;13.80;99.90
23719;DHT22;43322;52.230;5.702;2023-08-07T04:30:58;13.80;99.90
23719;DHT22;43322;52.230;5.702;2023-08-07T04:33:24;13.80;99.90
23719;DHT22;43322;52.230;5.702;2023-08-07T04:35:51;13.90;99.90
23719;DHT22;43322;52.230;5.702;2023-08-07T04:38:18;13.90;99.90
23719;DHT22;43322;52.230;5.702;2023-08-07T04:40:45;13.90;99.90
23719;DHT22;43322;52.230;5.702;2023-08-07T04:43:12;13.90;99.90
23719;DHT22;43322;52.230;5.702;2023-08-07T04:45:40;13.90;99.90
23719;DHT22;43322;52.230;5.702;2023-08-07T04:48:07;13.80;99.90
23719;DHT22;43322;52.230;5.702;2023-08-07T04:50:34;13.90;99.90
23719;DHT22;43322;52.230;5.702;2023-08-07T04:53:01;13.90;99.90
23719;DHT22;43322;52.230;5.702;2023-08-07T04:55:27;13.90;99.90
23719;DHT22;43322;52.230;5.702;2023-08-07T04:57:54;13.90;99.90
23719;DHT22;43322;52.230;5.702;2023-08-07T05:00:21;14.40;99.90
23719;DHT22;43322;52.230;5.702;2023-08-07T05:02:49;13.90;99.90
23719;DHT22;43322;52.230;5.702;2023-08-07T05:05:16;13.90;99.90
23719;DHT22;43322;52.230;5.702;2023-08-07T05:07:44;13.90;99.90
23719;DHT22;43322;52.230;5.702;2023-08-07T05:10:11;13.90;99.90
23719;DHT22;43322;52.230;5.702;2023-08-07T05:12:37;13.90;99.90
23719;DHT22;43322;52.230;5.702;2023-08-07T05:15:05;14.00;99.90
23719;DHT22;43322;52.230;5.702;2023-08-07T05:17:32;13.90;99.90
23719;DHT22;43322;52.230;5.702;2023-08-07T05:20:00;13.90;99.90
23719;DHT22;43322;52.230;5.702;2023-08-07T05:22:27;13.90;99.90
23719;DHT22;43322;52.230;5.702;2023-08-07T05:24:53;13.90;99.90
23719;DHT22;43322;52.230;5.702;2023-08-07T05:27:20;14.00;99.90
23719;DHT22;43322;52.230;5.702;2023-08-07T05:29:46;14.00;99.90
23719;DHT22;43322;52.230;5.702;2023-08-07T05:32:14;14.00;99.90
23719;DHT22;43322;52.230;5.702;2023-08-07T05:34:41;14.00;99.90
23719;DHT22;43322;52.230;5.702;2023-08-07T05:37:09;14.00;99.90
23719;DHT22;43322;52.230;5.702;2023-08-07T05:39:36;14.10;99.90
23719;DHT22;43322;52.230;5.702;2023-08-07T05:42:03;14.10;99.90
23719;DHT22;43322;52.230;5.702;2023-08-07T05:44:30;14.10;99.90
23719;DHT22;43322;52.230;5.702;2023-08-07T05:46:57;14.00;99.90
23719;DHT22;43322;52.230;5.702;2023-08-07T05:49:23;14.00;99.90
23719;DHT22;43322;52.230;5.702;2023-08-07T05:51:50;14.10;99.90
23719;DHT22;43322;52.230;5.702;2023-08-07T05:54:18;14.10;99.90
23719;DHT22;43322;52.230;5.702;2023-08-07T05:56:44;14.10;99.90
23719;DHT22;43322;52.230;5.702;2023-08-07T05:59:11;14.10;99.90
23719;DHT22;43322;52.230;5.702;2023-08-07T06:01:38;14.20;99.90
23719;DHT22;43322;52.230;5.702;2023-08-07T06:04:06;14.20;99.90
23719;DHT22;43322;52.230;5.702;2023-08-07T06:06:33;14.30;99.90
23719;DHT22;43322;52.230;5.702;2023-08-07T06:09:01;14.30;99.90
23719;DHT22;43322;52.230;5.702;2023-08-07T06:11:29;14.30;99.90
23719;DHT22;43322;52.230;5.702;2023-08-07T06:13:56;14.50;99.90
23719;DHT22;43322;52.230;5.702;2023-08-07T06:16:23;14.60;99.90
23719;DHT22;43322;52.230;5.702;2023-08-07T06:18:50;14.60;99.90
23719;DHT22;43322;52.230;5.702;2023-08-07T06:21:16;14.60;99.90
23719;DHT22;43322;52.230;5.702;2023-08-07T06:23:43;14.70;99.90
23719;DHT22;43322;52.230;5.702;2023-08-07T06:26:10;14.70;99.90
23719;DHT22;43322;52.230;5.702;2023-08-07T06:28:38;14.70;99.90
23719;DHT22;43322;52.230;5.702;2023-08-07T06:31:06;14.80;99.90
23719;DHT22;43322;52.230;5.702;2023-08-07T06:33:33;14.80;99.90
23719;DHT22;43322;52.230;5.702;2023-08-07T06:36:00;14.80;99.90
23719;DHT22;43322;52.230;5.702;2023-08-07T06:38:27;14.90;99.90
23719;DHT22;43322;52.230;5.702;2023-08-07T06:40:53;14.90;99.90
23719;DHT22;43322;52.230;5.702;2023-08-07T06:43:20;14.90;99.90
23719;DHT22;43322;52.230;5.702;2023-08-07T06:45:49;14.90;99.90
23719;DHT22;43322;52.230;5.702;2023-08-07T06:48:16;14.90;99.90
23719;DHT22;43322;52.230;5.702;2023-08-07T06:50:43;14.90;99.90
23719;DHT22;43322;52.230;5.702;2023-08-07T06:53:09;15.00;99.90
23719;DHT22;43322;52.230;5.702;2023-08-07T06:55:36;15.00;99.90
23719;DHT22;43322;52.230;5.702;2023-08-07T06:58:03;15.10;99.90
23719;DHT22;43322;52.230;5.702;2023-08-07T07:00:29;15.10;99.90
23719;DHT22;43322;52.230;5.702;2023-08-07T07:02:58;15.10;99.90
23719;DHT22;43322;52.230;5.702;2023-08-07T07:05:24;15.10;99.90
23719;DHT22;43322;52.230;5.702;2023-08-07T07:07:51;15.10;99.90
23719;DHT22;43322;52.230;5.702;2023-08-07T07:10:18;15.20;99.90
23719;DHT22;43322;52.230;5.702;2023-08-07T07:12:44;15.20;99.90
23719;DHT22;43322;52.230;5.702;2023-08-07T07:15:11;15.30;99.90
23719;DHT22;43322;52.230;5.702;2023-08-07T07:17:38;15.30;99.90
23719;DHT22;43322;52.230;5.702;2023-08-07T07:20:07;15.40;99.90
23719;DHT22;43322;52.230;5.702;2023-08-07T07:22:34;15.40;99.90
23719;DHT22;43322;52.230;5.702;2023-08-07T07:25:01;15.50;99.90
23719;DHT22;43322;52.230;5.702;2023-08-07T07:27:28;15.40;99.90
23719;DHT22;43322;52.230;5.702;2023-08-07T07:29:55;15.60;99.90
23719;DHT22;43322;52.230;5.702;2023-08-07T07:32:21;15.60;99.90
23719;DHT22;43322;52.230;5.702;2023-08-07T07:34:48;15.60;99.90
23719;DHT22;43322;52.230;5.702;2023-08-07T07:37:16;15.60;99.90
23719;DHT22;43322;52.230;5.702;2023-08-07T07:39:43;15.50;99.90
23719;DHT22;43322;52.230;5.702;2023-08-07T07:42:10;15.50;99.90
23719;DHT22;43322;52.230;5.702;2023-08-07T07:44:37;15.30;99.90
23719;DHT22;43322;52.230;5.702;2023-08-07T07:47:05;15.20;99.90
23719;DHT22;43322;52.230;5.702;2023-08-07T07:49:32;15.00;99.90
23719;DHT22;43322;52.230;5.702;2023-08-07T07:51:59;14.80;99.90
23719;DHT22;43322;52.230;5.702;2023-08-07T07:54:28;14.80;99.90
23719;DHT22;43322;52.230;5.702;2023-08-07T07:56:55;14.90;99.90
23719;DHT22;43322;52.230;5.702;2023-08-07T07:59:21;15.00;99.90
23719;DHT22;43322;52.230;5.702;2023-08-07T08:01:48;15.30;99.90
23719;DHT22;43322;52.230;5.702;2023-08-07T08:04:15;15.40;99.90
23719;DHT22;43322;52.230;5.702;2023-08-07T08:06:41;15.40;99.90
23719;DHT22;43322;52.230;5.702;2023-08-07T08:09:08;15.50;99.90
23719;DHT22;43322;52.230;5.702;2023-08-07T08:11:36;15.60;99.90
23719;DHT22;43322;52.230;5.702;2023-08-07T08:14:03;15.70;99.90
23719;DHT22;43322;52.230;5.702;2023-08-07T08:16:30;15.80;99.90
23719;DHT22;43322;52.230;5.702;2023-08-07T08:18:56;16.00;99.90
23719;DHT22;43322;52.230;5.702;2023-08-07T08:21:23;16.20;99.90
23719;DHT22;43322;52.230;5.702;2023-08-07T08:23:50;16.40;99.90
23719;DHT22;43322;52.230;5.702;2023-08-07T08:26:16;16.80;99.90
23719;DHT22;43322;52.230;5.702;2023-08-07T08:28:44;17.00;99.90
23719;DHT22;43322;52.230;5.702;2023-08-07T08:31:11;17.00;99.90
23719;DHT22;43322;52.230;5.702;2023-08-07T08:33:38;16.70;99.90
23719;DHT22;43322;52.230;5.702;2023-08-07T08:36:05;16.50;99.90
23719;DHT22;43322;52.230;5.702;2023-08-07T08:38:32;16.30;99.90
23719;DHT22;43322;52.230;5.702;2023-08-07T08:41:02;16.20;99.90
23719;DHT22;43322;52.230;5.702;2023-08-07T08:43:31;16.10;99.90
23719;DHT22;43322;52.230;5.702;2023-08-07T08:46:04;16.20;99.90
23719;DHT22;43322;52.230;5.702;2023-08-07T08:48:34;16.30;99.90
23719;DHT22;43322;52.230;5.702;2023-08-07T08:51:02;16.40;99.90
23719;DHT22;43322;52.230;5.702;2023-08-07T08:53:29;16.50;99.90
23719;DHT22;43322;52.230;5.702;2023-08-07T08:55:56;16.70;99.90
23719;DHT22;43322;52.230;5.702;2023-08-07T08:58:23;16.70;99.90
23719;DHT22;43322;52.230;5.702;2023-08-07T09:00:50;17.00;99.90
23719;DHT22;43322;52.230;5.702;2023-08-07T09:03:19;16.70;99.90
23719;DHT22;43322;52.230;5.702;2023-08-07T09:05:46;16.90;99.90
23719;DHT22;43322;52.230;5.702;2023-08-07T09:08:13;16.90;99.90
23719;DHT22;43322;52.230;5.702;2023-08-07T09:10:41;16.70;99.90
23719;DHT22;43322;52.230;5.702;2023-08-07T09:13:12;16.80;99.90
23719;DHT22;43322;52.230;5.702;2023-08-07T09:15:41;16.90;99.90
23719;DHT22;43322;52.230;5.702;2023-08-07T09:18:13;16.90;99.90
23719;DHT22;43322;52.230;5.702;2023-08-07T09:20:42;16.80;99.90
23719;DHT22;43322;52.230;5.702;2023-08-07T09:23:09;16.70;99.90
23719;DHT22;43322;52.230;5.702;2023-08-07T09:25:35;16.80;99.90
23719;DHT22;43322;52.230;5.702;2023-08-07T09:28:03;17.00;99.90
23719;DHT22;43322;52.230;5.702;2023-08-07T09:30:31;17.10;99.90
23719;DHT22;43322;52.230;5.702;2023-08-07T09:32:58;17.10;99.90
23719;DHT22;43322;52.230;5.702;2023-08-07T09:35:25;17.10;99.90
23719;DHT22;43322;52.230;5.702;2023-08-07T09:37:53;17.30;99.90
23719;DHT22;43322;52.230;5.702;2023-08-07T09:40:20;17.30;99.90
23719;DHT22;43322;52.230;5.702;2023-08-07T09:42:50;17.00;99.90
23719;DHT22;43322;52.230;5.702;2023-08-07T09:45:20;17.20;99.90
23719;DHT22;43322;52.230;5.702;2023-08-07T09:47:49;17.60;99.90
23719;DHT22;43322;52.230;5.702;2023-08-07T09:50:23;17.50;99.90
23719;DHT22;43322;52.230;5.702;2023-08-07T09:52:49;17.30;99.90
23719;DHT22;43322;52.230;5.702;2023-08-07T09:55:17;17.00;99.90
23719;DHT22;43322;52.230;5.702;2023-08-07T09:57:44;16.80;99.90
23719;DHT22;43322;52.230;5.702;2023-08-07T10:00:12;16.80;99.90
23719;DHT22;43322;52.230;5.702;2023-08-07T10:02:40;16.90;99.90
23719;DHT22;43322;52.230;5.702;2023-08-07T10:05:07;17.80;99.90
23719;DHT22;43322;52.230;5.702;2023-08-07T10:07:35;18.00;99.90
23719;DHT22;43322;52.230;5.702;2023-08-07T10:10:03;18.10;99.90
23719;DHT22;43322;52.230;5.702;2023-08-07T10:12:32;17.70;99.90
23719;DHT22;43322;52.230;5.702;2023-08-07T10:14:59;17.40;99.90
23719;DHT22;43322;52.230;5.702;2023-08-07T10:17:27;17.30;99.90
23719;DHT22;43322;52.230;5.702;2023-08-07T10:19:54;17.50;99.90
23719;DHT22;43322;52.230;5.702;2023-08-07T10:22:23;18.80;99.90
23719;DHT22;43322;52.230;5.702;2023-08-07T10:24:53;19.10;99.90
23719;DHT22;43322;52.230;5.702;2023-08-07T10:27:21;18.80;99.90
23719;DHT22;43322;52.230;5.702;2023-08-07T10:29:52;18.30;99.90
23719;DHT22;43322;52.230;5.702;2023-08-07T10:32:22;18.20;99.90
23719;DHT22;43322;52.230;5.702;2023-08-07T10:34:49;17.80;99.90
23719;DHT22;43322;52.230;5.702;2023-08-07T10:37:38;17.40;99.90
23719;DHT22;43322;52.230;5.702;2023-08-07T10:40:07;17.90;99.90
23719;DHT22;43322;52.230;5.702;2023-08-07T10:42:59;18.90;99.90
23719;DHT22;43322;52.230;5.702;2023-08-07T10:45:28;18.80;99.90
23719;DHT22;43322;52.230;5.702;2023-08-07T10:48:08;18.90;99.90
23719;DHT22;43322;52.230;5.702;2023-08-07T10:50:49;19.90;99.90
23719;DHT22;43322;52.230;5.702;2023-08-07T10:53:20;21.10;99.90
23719;DHT22;43322;52.230;5.702;2023-08-07T10:55:48;21.40;99.90
23719;DHT22;43322;52.230;5.702;2023-08-07T10:58:24;21.90;99.90
23719;DHT22;43322;52.230;5.702;2023-08-07T11:03:35;22.10;99.90
23719;DHT22;43322;52.230;5.702;2023-08-07T11:06:02;22.40;99.90
23719;DHT22;43322;52.230;5.702;2023-08-07T11:08:29;22.00;99.90
23719;DHT22;43322;52.230;5.702;2023-08-07T11:10:59;21.80;99.90
23719;DHT22;43322;52.230;5.702;2023-08-07T11:13:30;21.90;99.90
23719;DHT22;43322;52.230;5.702;2023-08-07T11:15:58;22.30;99.90
23719;DHT22;43322;52.230;5.702;2023-08-07T11:18:26;22.20;99.90
23719;DHT22;43322;52.230;5.702;2023-08-07T11:20:53;22.10;99.90
23719;DHT22;43322;52.230;5.702;2023-08-07T11:23:23;21.10;99.90
23719;DHT22;43322;52.230;5.702;2023-08-07T11:25:51;20.80;99.90
23719;DHT22;43322;52.230;5.702;2023-08-07T11:28:18;20.30;99.90
23719;DHT22;43322;52.230;5.702;2023-08-07T11:30:46;19.80;99.90
23719;DHT22;43322;52.230;5.702;2023-08-07T11:33:15;20.00;99.90
23719;DHT22;43322;52.230;5.702;2023-08-07T11:35:43;20.40;99.90
23719;DHT22;43322;52.230;5.702;2023-08-07T11:38:10;20.70;99.90
23719;DHT22;43322;52.230;5.702;2023-08-07T11:40:37;20.60;99.90
23719;DHT22;43322;52.230;5.702;2023-08-07T11:43:04;21.60;99.90
23719;DHT22;43322;52.230;5.702;2023-08-07T11:45:31;22.50;99.90
23719;DHT22;43322;52.230;5.702;2023-08-07T11:47:57;22.80;99.90
23719;DHT22;43322;52.230;5.702;2023-08-07T11:50:27;22.10;99.90
23719;DHT22;43322;52.230;5.702;2023-08-07T11:52:54;22.70;99.90
23719;DHT22;43322;52.230;5.702;2023-08-07T11:55:28;23.90;99.90
23719;DHT22;43322;52.230;5.702;2023-08-07T11:57:55;23.70;99.90
23719;DHT22;43322;52.230;5.702;2023-08-07T12:00:25;24.80;99.90
23719;DHT22;43322;52.230;5.702;2023-08-07T12:02:53;25.00;99.90
23719;DHT22;43322;52.230;5.702;2023-08-07T12:05:19;24.70;99.90
23719;DHT22;43322;52.230;5.702;2023-08-07T12:07:48;23.30;99.90
23719;DHT22;43322;52.230;5.702;2023-08-07T12:10:15;21.50;99.90
23719;DHT22;43322;52.230;5.702;2023-08-07T12:12:42;20.70;99.90
23719;DHT22;43322;52.230;5.702;2023-08-07T12:15:10;21.50;99.90
23719;DHT22;43322;52.230;5.702;2023-08-07T12:17:37;23.10;99.90
23719;DHT22;43322;52.230;5.702;2023-08-07T12:20:05;23.70;99.90
23719;DHT22;43322;52.230;5.702;2023-08-07T12:22:33;24.10;99.90
23719;DHT22;43322;52.230;5.702;2023-08-07T12:25:03;23.30;99.90
23719;DHT22;43322;52.230;5.702;2023-08-07T12:27:30;22.70;99.90
23719;DHT22;43322;52.230;5.702;2023-08-07T12:29:57;21.20;99.90
23719;DHT22;43322;52.230;5.702;2023-08-07T12:32:23;20.60;99.90
23719;DHT22;43322;52.230;5.702;2023-08-07T12:34:50;21.70;99.90
23719;DHT22;43322;52.230;5.702;2023-08-07T12:37:19;23.30;99.90
23719;DHT22;43322;52.230;5.702;2023-08-07T12:39:45;24.20;99.90
23719;DHT22;43322;52.230;5.702;2023-08-07T12:42:13;24.40;99.90
23719;DHT22;43322;52.230;5.702;2023-08-07T12:44:40;24.60;99.90
23719;DHT22;43322;52.230;5.702;2023-08-07T12:47:08;25.00;99.90
23719;DHT22;43322;52.230;5.702;2023-08-07T12:49:35;25.60;99.90
23719;DHT22;43322;52.230;5.702;2023-08-07T12:52:02;24.10;99.90
23719;DHT22;43322;52.230;5.702;2023-08-07T12:54:29;22.40;99.90
23719;DHT22;43322;52.230;5.702;2023-08-07T12:56:55;21.80;99.90
23719;DHT22;43322;52.230;5.702;2023-08-07T12:59:23;23.10;99.90
23719;DHT22;43322;52.230;5.702;2023-08-07T13:01:50;24.40;99.90
23719;DHT22;43322;52.230;5.702;2023-08-07T13:04:18;23.90;99.90
23719;DHT22;43322;52.230;5.702;2023-08-07T13:06:45;24.00;99.90
23719;DHT22;43322;52.230;5.702;2023-08-07T13:09:11;23.80;99.90
23719;DHT22;43322;52.230;5.702;2023-08-07T13:11:38;24.40;99.90
23719;DHT22;43322;52.230;5.702;2023-08-07T13:14:05;24.70;99.90
23719;DHT22;43322;52.230;5.702;2023-08-07T13:16:33;24.50;99.90
23719;DHT22;43322;52.230;5.702;2023-08-07T13:19:00;23.70;99.90
23719;DHT22;43322;52.230;5.702;2023-08-07T13:21:26;23.60;99.90
23719;DHT22;43322;52.230;5.702;2023-08-07T13:23:53;23.60;99.90
23719;DHT22;43322;52.230;5.702;2023-08-07T13:26:20;22.50;99.90
23719;DHT22;43322;52.230;5.702;2023-08-07T13:28:47;21.50;99.90
23719;DHT22;43322;52.230;5.702;2023-08-07T13:31:13;22.00;99.90
23719;DHT22;43322;52.230;5.702;2023-08-07T13:33:41;22.80;99.90
23719;DHT22;43322;52.230;5.702;2023-08-07T13:36:08;23.40;99.90
23719;DHT22;43322;52.230;5.702;2023-08-07T13:38:35;24.20;99.90
23719;DHT22;43322;52.230;5.702;2023-08-07T13:41:02;24.20;99.90
23719;DHT22;43322;52.230;5.702;2023-08-07T13:43:28;23.60;99.90
23719;DHT22;43322;52.230;5.702;2023-08-07T13:45:55;23.00;99.90
23719;DHT22;43322;52.230;5.702;2023-08-07T13:48:22;23.60;99.90
23719;DHT22;43322;52.230;5.702;2023-08-07T13:50:53;23.50;99.90
23719;DHT22;43322;52.230;5.702;2023-08-07T13:53:20;23.30;99.90
23719;DHT22;43322;52.230;5.702;2023-08-07T13:55:49;22.90;99.90
23719;DHT22;43322;52.230;5.702;2023-08-07T13:58:16;22.40;99.90
23719;DHT22;43322;52.230;5.702;2023-08-07T14:00:42;21.40;99.90
23719;DHT22;43322;52.230;5.702;2023-08-07T14:03:10;21.10;99.90
23719;DHT22;43322;52.230;5.702;2023-08-07T14:05:37;21.50;99.90
23719;DHT22;43322;52.230;5.702;2023-08-07T14:08:06;21.80;99.90
23719;DHT22;43322;52.230;5.702;2023-08-07T14:10:32;21.80;99.90
23719;DHT22;43322;52.230;5.702;2023-08-07T14:12:59;21.50;99.90
23719;DHT22;43322;52.230;5.702;2023-08-07T14:15:26;21.10;99.90
23719;DHT22;43322;52.230;5.702;2023-08-07T14:17:52;20.70;99.90
23719;DHT22;43322;52.230;5.702;2023-08-07T14:20:21;20.40;99.90
23719;DHT22;43322;52.230;5.702;2023-08-07T14:22:48;20.30;99.90
23719;DHT22;43322;52.230;5.702;2023-08-07T14:25:17;20.20;99.90
23719;DHT22;43322;52.230;5.702;2023-08-07T14:27:43;20.10;99.90
23719;DHT22;43322;52.230;5.702;2023-08-07T14:30:11;20.40;99.90
23719;DHT22;43322;52.230;5.702;2023-08-07T14:32:38;20.70;99.90
23719;DHT22;43322;52.230;5.702;2023-08-07T14:35:05;20.90;99.90
23719;DHT22;43322;52.230;5.702;2023-08-07T14:37:32;21.30;99.90
23719;DHT22;43322;52.230;5.702;2023-08-07T14:39:59;21.00;99.90
23719;DHT22;43322;52.230;5.702;2023-08-07T14:42:27;21.10;99.90
23719;DHT22;43322;52.230;5.702;2023-08-07T14:44:54;21.40;99.90
23719;DHT22;43322;52.230;5.702;2023-08-07T14:47:20;21.40;99.90
23719;DHT22;43322;52.230;5.702;2023-08-07T14:49:47;21.10;99.90
23719;DHT22;43322;52.230;5.702;2023-08-07T14:52:14;21.50;99.90
23719;DHT22;43322;52.230;5.702;2023-08-07T14:54:40;21.70;99.90
23719;DHT22;43322;52.230;5.702;2023-08-07T14:57:07;21.30;99.90
23719;DHT22;43322;52.230;5.702;2023-08-07T14:59:35;20.70;99.90
23719;DHT22;43322;52.230;5.702;2023-08-07T15:02:02;20.10;99.90
23719;DHT22;43322;52.230;5.702;2023-08-07T15:04:29;19.60;99.90
23719;DHT22;43322;52.230;5.702;2023-08-07T15:06:55;19.40;99.90
23719;DHT22;43322;52.230;5.702;2023-08-07T15:09:23;19.20;99.90
23719;DHT22;43322;52.230;5.702;2023-08-07T15:11:50;19.40;99.90
23719;DHT22;43322;52.230;5.702;2023-08-07T15:14:17;20.00;99.90
23719;DHT22;43322;52.230;5.702;2023-08-07T15:16:45;20.60;99.90
23719;DHT22;43322;52.230;5.702;2023-08-07T15:19:12;21.20;99.90
23719;DHT22;43322;52.230;5.702;2023-08-07T15:21:39;21.60;99.90
23719;DHT22;43322;52.230;5.702;2023-08-07T15:24:05;21.70;99.90
23719;DHT22;43322;52.230;5.702;2023-08-07T15:26:32;22.00;99.90
23719;DHT22;43322;52.230;5.702;2023-08-07T15:28:59;21.80;99.90
23719;DHT22;43322;52.230;5.702;2023-08-07T15:31:26;21.70;99.90
23719;DHT22;43322;52.230;5.702;2023-08-07T15:33:54;20.90;99.90